Terminal Aerodrome Forecast
Issued by NWS Midland/Odessa, TX

Home | Current Version | Previous Version | Text Only | Print | Product List | Glossary On
Versions: 1 2 3 4 5 6 7 8 9 10 11 12 13 14 15 16 17 18 19 20 21 22 23 24 25 26 27 28 29 30
000
FTUS44 KMAF 271700
TAFMAF
TAF
KMAF 271739Z 2718/2818 33014G21KT P6SM BKN035
     FM272100 33018G25KT P6SM BKN050
     FM280600 35018G24KT P6SM OVC020 PROB30 2806/2812 P6SM -SHRA
      OVC015=

USA.gov is the U.S. government's official web portal to all federal, state and local government web resources and services.